Time;durP1;ratioP1;P1;durP2;ratioP2;P2;SDS_P1;SDS_P2;PMS_P1;PMS_P2;Temp;Humidity;BMP_temperature;BMP_pressure;BME280_temperature;BME280_humidity;BME280_pressure;Samples;Min_cycle;Max_cycle;Signal;HPM_P1;HPM_P2
2023/06/12 00:01:03;;;;;;;8.68;3.20;;;16.60;99.90;;;16.14;100.00;101134.19;4120279;28;20026;-75
2023/06/12 00:03:03;;;;;;;4.53;2.95;;;16.60;99.90;;;16.12;100.00;101141.53;4129998;28;20046;-75
2023/06/12 00:05:05;;;;;;;4.88;2.75;;;16.60;99.90;;;16.08;100.00;101126.91;4127754;28;20019;-75
2023/06/12 00:07:06;;;;;;;3.63;3.08;;;16.60;99.90;;;16.08;100.00;101139.41;4119043;28;20450;-75
2023/06/12 00:09:07;;;;;;;6.43;3.20;;;16.50;99.90;;;16.04;100.00;101144.25;4119790;28;20098;-75
2023/06/12 00:11:12;;;;;;;4.80;3.22;;;16.50;99.90;;;16.00;100.00;101140.31;4120189;28;20074;-75
2023/06/12 00:13:14;;;;;;;5.47;3.33;;;16.50;99.90;;;15.95;100.00;101140.84;4119955;28;20052;-75
2023/06/12 00:15:15;;;;;;;5.43;3.03;;;16.40;99.90;;;15.85;100.00;101137.63;4118502;28;20039;-75
2023/06/12 00:17:16;;;;;;;5.43;3.30;;;16.40;99.90;;;15.91;100.00;101136.09;4119720;28;20023;-75
2023/06/12 00:19:17;;;;;;;5.22;3.00;;;16.40;99.90;;;15.89;100.00;101138.06;4134967;28;20034;-75
2023/06/12 00:21:23;;;;;;;5.95;3.70;;;16.40;99.90;;;15.86;100.00;101149.13;4119819;28;20026;-75
2023/06/12 00:23:23;;;;;;;4.00;2.92;;;16.30;99.90;;;15.81;100.00;101138.16;4121527;28;20121;-75
2023/06/12 00:25:28;;;;;;;4.43;2.70;;;16.30;99.90;;;15.77;100.00;101132.38;4118517;28;20027;-76
2023/06/12 00:27:29;;;;;;;6.00;3.60;;;16.30;99.90;;;15.78;100.00;101136.69;4118243;28;20069;-75
2023/06/12 00:29:29;;;;;;;4.85;3.20;;;16.30;99.90;;;15.78;100.00;101138.53;4119746;28;20023;-75
2023/06/12 00:31:30;;;;;;;6.00;3.15;;;16.30;99.90;;;15.78;100.00;101138.53;4119844;28;20034;-75
2023/06/12 00:33:31;;;;;;;4.95;3.42;;;16.20;99.90;;;15.76;100.00;101137.88;4119564;28;20110;-75
2023/06/12 00:35:32;;;;;;;5.10;3.17;;;16.20;99.90;;;15.74;100.00;101134.59;4121575;28;20092;-75
2023/06/12 00:37:33;;;;;;;8.73;2.95;;;16.20;99.90;;;15.70;100.00;101131.47;4136920;28;20031;-75
2023/06/12 00:39:34;;;;;;;4.13;2.80;;;16.20;99.90;;;15.71;100.00;101133.09;4138932;28;20508;-75
2023/06/12 00:41:35;;;;;;;4.22;3.20;;;16.20;99.90;;;15.73;100.00;101131.09;4137380;28;20030;-75
2023/06/12 00:43:36;;;;;;;6.07;3.20;;;16.20;99.90;;;15.73;100.00;101133.75;4139056;28;20027;-75
2023/06/12 00:45:37;;;;;;;3.63;2.53;;;16.20;99.90;;;15.74;100.00;101132.72;4138965;28;20025;-75
2023/06/12 00:47:39;;;;;;;4.03;2.70;;;16.20;99.90;;;15.76;100.00;101135.22;4138739;28;20022;-75
2023/06/12 00:49:40;;;;;;;4.32;2.78;;;16.20;99.90;;;15.73;100.00;101136.41;4138630;28;20074;-75
2023/06/12 00:51:42;;;;;;;6.13;2.50;;;16.20;99.90;;;15.70;100.00;101136.78;4137646;28;20034;-75
2023/06/12 00:53:43;;;;;;;4.03;2.50;;;16.20;99.90;;;15.66;100.00;101135.47;4153757;28;20037;-75
2023/06/12 00:55:44;;;;;;;5.20;2.60;;;16.20;99.90;;;15.56;100.00;101113.59;4138634;28;20034;-74
2023/06/12 00:57:47;;;;;;;4.85;2.70;;;16.10;99.90;;;15.62;100.00;101122.72;4137132;28;20037;-75
2023/06/12 00:59:51;;;;;;;3.40;2.40;;;16.10;99.90;;;15.60;100.00;101127.38;4153799;28;20025;-75
2023/06/12 01:01:53;;;;;;;4.15;2.30;;;16.10;99.90;;;15.56;100.00;101129.56;4138554;28;20038;-75
2023/06/12 01:03:57;;;;;;;4.68;3.05;;;16.10;99.90;;;15.55;100.00;101119.13;4137252;28;20109;-75
2023/06/12 01:06:01;;;;;;;4.20;3.08;;;16.10;99.90;;;15.50;100.00;101117.00;4121603;28;20038;-75
2023/06/12 01:08:31;;;;;;;2.97;2.60;;;16.00;99.90;;;15.52;100.00;101124.78;4121273;28;20410;-75
2023/06/12 01:10:54;;;;;;;4.10;2.33;;;16.00;99.90;;;15.46;100.00;101113.00;4122266;28;20059;-75
2023/06/12 01:12:59;;;;;;;4.20;2.72;;;15.90;99.90;;;15.41;100.00;101116.19;4124437;28;20030;-75
2023/06/12 01:14:59;;;;;;;3.42;2.58;;;16.00;99.90;;;15.39;100.00;101107.56;4127861;28;20452;-75
2023/06/12 01:17:02;;;;;;;4.38;2.47;;;16.00;99.90;;;15.39;100.00;101112.88;4120907;28;20038;-75
2023/06/12 01:19:03;;;;;;;4.07;2.20;;;15.90;99.90;;;15.39;100.00;101110.22;4122166;28;20064;-75
2023/06/12 01:21:09;;;;;;;3.85;2.50;;;15.90;99.90;;;15.37;100.00;101103.44;4122182;28;20027;-75
2023/06/12 01:23:36;;;;;;;4.10;2.58;;;15.80;99.90;;;15.33;100.00;101105.63;4123263;28;20054;-75
2023/06/12 01:26:27;;;;;;;3.22;2.22;;;15.90;99.90;;;15.31;100.00;101105.00;4122255;28;20134;-75
2023/06/12 01:29:10;;;;;;;4.95;2.72;;;15.80;99.90;;;15.27;100.00;101103.69;4121966;28;20030;-75
2023/06/12 01:31:38;;;;;;;3.72;2.03;;;15.80;99.90;;;15.20;100.00;101093.94;4120747;28;20043;-75
2023/06/12 01:33:47;;;;;;;3.80;2.20;;;15.80;99.90;;;15.16;100.00;101085.50;4122215;28;20022;-75
2023/06/12 01:35:53;;;;;;;3.00;1.98;;;15.70;99.90;;;15.22;100.00;101099.91;4122043;28;20034;-75
2023/06/12 01:38:14;;;;;;;3.10;2.20;;;15.70;99.90;;;15.22;100.00;101105.22;4120677;28;20054;-75
2023/06/12 01:40:18;;;;;;;2.50;2.00;;;15.70;99.90;;;15.15;100.00;101099.78;4120737;28;20031;-75
2023/06/12 01:42:20;;;;;;;4.30;2.78;;;15.70;99.90;;;15.16;100.00;101098.78;4120584;28;20027;-75
2023/06/12 01:44:21;;;;;;;2.60;2.03;;;15.70;99.90;;;15.15;100.00;101097.13;4120762;28;20043;-75
2023/06/12 01:46:22;;;;;;;2.60;2.05;;;15.70;99.90;;;15.14;100.00;101097.31;4121652;28;20031;-75
2023/06/12 01:48:23;;;;;;;3.33;2.45;;;15.60;99.90;;;15.15;100.00;101093.63;4120253;28;20030;-75
2023/06/12 01:50:24;;;;;;;3.08;2.28;;;15.60;99.90;;;15.13;100.00;101098.31;4121876;28;20041;-75
2023/06/12 01:52:26;;;;;;;5.45;2.63;;;15.60;99.90;;;15.12;100.00;101099.28;4121814;28;20030;-75
2023/06/12 01:54:27;;;;;;;3.65;2.42;;;15.60;99.90;;;15.12;100.00;101094.81;4122108;28;20027;-75
2023/06/12 01:56:28;;;;;;;3.75;2.38;;;15.60;99.90;;;15.08;100.00;101096.19;4121624;28;20102;-75
2023/06/12 01:58:29;;;;;;;6.38;2.33;;;15.60;99.90;;;15.10;100.00;101101.31;4120533;28;20027;-75
2023/06/12 02:00:30;;;;;;;3.83;2.20;;;15.60;99.90;;;15.09;100.00;101102.31;4121532;28;20031;-75
2023/06/12 02:02:33;;;;;;;3.92;2.70;;;15.60;99.90;;;15.10;100.00;101106.63;4122241;28;20026;-75
2023/06/12 02:04:34;;;;;;;7.30;2.83;;;15.60;99.90;;;15.06;100.00;101103.50;4133246;28;20038;-75
2023/06/12 02:06:35;;;;;;;3.05;2.30;;;15.60;99.90;;;15.03;100.00;101106.50;4126476;28;20022;-75
2023/06/12 02:08:36;;;;;;;3.90;2.70;;;15.60;99.90;;;14.96;100.00;101097.59;4126912;28;20022;-75
2023/06/12 02:10:38;;;;;;;3.65;2.65;;;15.50;99.90;;;14.99;100.00;101110.53;4121270;28;20034;-75
2023/06/12 02:12:39;;;;;;;2.72;2.45;;;15.50;99.90;;;14.94;100.00;101102.25;4121302;28;20023;-75
2023/06/12 02:14:42;;;;;;;3.75;2.25;;;15.50;99.90;;;14.93;100.00;101101.41;4121384;28;20031;-75
2023/06/12 02:16:45;;;;;;;3.60;2.90;;;15.40;99.90;;;14.89;100.00;101099.28;4121125;28;20062;-75
2023/06/12 02:18:46;;;;;;;5.43;3.03;;;15.40;99.90;;;14.86;100.00;101089.03;4119942;28;20127;-75
2023/06/12 02:20:49;;;;;;;3.97;2.67;;;15.40;99.90;;;14.82;100.00;101096.50;4121348;28;20104;-75
2023/06/12 02:22:50;;;;;;;4.53;2.47;;;15.40;99.90;;;14.85;100.00;101098.81;4129281;28;20022;-75
2023/06/12 02:24:50;;;;;;;5.40;3.00;;;15.40;99.90;;;14.85;100.00;101100.63;4135847;28;20034;-75
2023/06/12 02:26:51;;;;;;;3.88;2.80;;;15.40;99.90;;;14.80;100.00;101087.91;4122722;28;20402;-75
2023/06/12 02:29:28;;;;;;;3.97;2.42;;;15.30;99.90;;;14.80;100.00;101095.03;4120041;28;20033;-75
2023/06/12 02:31:29;;;;;;;4.80;2.75;;;15.30;99.90;;;14.77;100.00;101087.41;4103332;28;20035;-75
2023/06/12 02:33:31;;;;;;;3.35;2.72;;;15.30;99.90;;;14.78;100.00;101087.22;4112915;28;20046;-75
2023/06/12 02:35:32;;;;;;;5.82;2.88;;;15.30;99.90;;;14.78;100.00;101087.22;4121236;28;20030;-75
2023/06/12 02:37:33;;;;;;;3.50;2.50;;;15.30;99.90;;;14.79;100.00;101093.38;4121116;28;20482;-75
2023/06/12 02:39:34;;;;;;;6.35;3.08;;;15.30;99.90;;;14.82;100.00;101085.03;4119914;28;20146;-75
2023/06/12 02:41:35;;;;;;;5.75;3.30;;;15.30;99.90;;;14.80;100.00;101079.94;4120855;28;20029;-75
2023/06/12 02:43:36;;;;;;;5.75;2.90;;;15.30;99.90;;;14.89;100.00;101088.66;4120888;28;20489;-75
2023/06/12 02:45:37;;;;;;;3.53;2.55;;;15.40;99.90;;;14.92;100.00;101086.50;4121011;28;20035;-75
2023/06/12 02:47:38;;;;;;;3.17;2.60;;;15.40;99.90;;;14.95;100.00;101087.97;4119614;28;20027;-75
2023/06/12 02:49:44;;;;;;;6.72;2.70;;;15.40;99.90;;;15.01;100.00;101092.56;4120738;28;20042;-75
2023/06/12 02:51:45;;;;;;;4.15;3.05;;;15.50;99.90;;;14.97;100.00;101080.63;4119493;28;20458;-75
2023/06/12 02:53:46;;;;;;;8.88;3.00;;;15.50;99.90;;;15.02;100.00;101085.44;4120910;28;20053;-75
2023/06/12 02:55:46;;;;;;;3.25;2.85;;;15.50;99.90;;;15.07;100.00;101086.56;4119610;28;20062;-75
2023/06/12 02:57:47;;;;;;;4.25;3.00;;;15.60;99.90;;;15.06;100.00;101086.72;4120352;28;20158;-75
2023/06/12 02:59:48;;;;;;;5.00;2.70;;;15.60;99.90;;;15.10;100.00;101090.69;4119994;28;20058;-75
2023/06/12 03:01:50;;;;;;;3.75;3.00;;;15.70;99.90;;;15.12;100.00;101086.00;4120650;28;20023;-75
2023/06/12 03:03:52;;;;;;;3.72;3.30;;;15.70;99.90;;;15.16;100.00;101100.63;4131100;28;20030;-75
2023/06/12 03:05:53;;;;;;;3.17;2.80;;;15.70;99.90;;;15.18;100.00;101095.94;4121454;28;20019;-75
2023/06/12 03:07:54;;;;;;;3.30;2.55;;;15.70;99.90;;;15.17;100.00;101092.44;4120642;28;20034;-75
2023/06/12 03:09:55;;;;;;;4.65;2.83;;;15.70;99.90;;;15.13;100.00;101091.16;4123489;28;20015;-75
2023/06/12 03:11:56;;;;;;;3.28;2.72;;;15.70;99.90;;;15.19;100.00;101095.78;4123803;28;20030;-75
2023/06/12 03:13:57;;;;;;;4.43;2.90;;;15.80;99.90;;;15.19;100.00;101094.94;4135289;28;20030;-75
2023/06/12 03:15:58;;;;;;;3.22;2.85;;;15.70;99.90;;;15.17;100.00;101104.94;4119044;28;20061;-75
2023/06/12 03:17:59;;;;;;;4.88;2.70;;;15.80;99.90;;;15.17;100.00;101104.94;4120398;28;20406;-75
2023/06/12 03:19:59;;;;;;;3.80;2.95;;;15.70;99.90;;;15.09;100.00;101091.69;4120384;28;20037;-75
2023/06/12 03:22:00;;;;;;;3.85;2.70;;;15.70;99.90;;;15.09;100.00;101099.66;4122201;28;20034;-75
2023/06/12 03:24:01;;;;;;;3.55;2.83;;;15.70;99.90;;;15.07;100.00;101099.84;4119143;28;20454;-75
2023/06/12 03:26:02;;;;;;;3.65;2.70;;;15.60;99.90;;;15.02;100.00;101096.91;4120275;28;20037;-75
2023/06/12 03:28:03;;;;;;;5.50;3.47;;;15.60;99.90;;;15.06;100.00;101100.00;4120258;28;20035;-75
2023/06/12 03:30:05;;;;;;;4.95;2.80;;;15.60;99.90;;;15.07;100.00;101099.84;4118789;28;20038;-75
2023/06/12 03:32:07;;;;;;;6.80;3.35;;;15.60;99.90;;;15.07;100.00;101102.50;4120255;28;20027;-75
2023/06/12 03:34:08;;;;;;;3.58;2.72;;;15.60;99.90;;;15.09;100.00;101107.63;4116354;28;20117;-75
2023/06/12 03:36:11;;;;;;;3.50;2.85;;;15.60;99.90;;;15.18;100.00;101104.75;4128701;28;20066;-75
2023/06/12 03:38:11;;;;;;;4.68;2.88;;;15.70;99.90;;;15.18;100.00;101104.75;4136066;28;20114;-75
2023/06/12 03:40:13;;;;;;;7.10;2.97;;;15.70;99.90;;;15.19;100.00;101108.22;4136331;28;20041;-75
2023/06/12 03:42:15;;;;;;;5.40;2.80;;;15.70;99.90;;;15.22;100.00;101111.38;4134840;28;20031;-75
2023/06/12 03:44:15;;;;;;;3.45;2.90;;;15.80;99.90;;;15.20;100.00;101101.91;4136277;28;20086;-75
2023/06/12 03:46:16;;;;;;;4.53;2.78;;;15.70;99.90;;;15.20;100.00;101108.03;4135851;28;20141;-75
2023/06/12 03:48:17;;;;;;;3.67;3.10;;;15.80;99.90;;;15.21;100.00;101103.56;4120172;28;20038;-75
2023/06/12 03:50:19;;;;;;;3.70;3.08;;;15.70;99.90;;;15.16;100.00;101105.94;4120080;28;20030;-75
2023/06/12 03:52:21;;;;;;;3.85;2.92;;;15.70;99.90;;;15.15;100.00;101109.56;4119979;28;20078;-75
2023/06/12 03:54:21;;;;;;;3.53;2.63;;;15.70;99.90;;;15.13;100.00;101101.78;4119946;28;20027;-75
2023/06/12 03:56:22;;;;;;;5.90;3.08;;;15.70;99.90;;;15.05;100.00;101107.19;4119914;28;20030;-74
2023/06/12 03:58:24;;;;;;;7.95;3.03;;;15.70;99.90;;;15.07;100.00;101102.50;4120027;28;20023;-75
2023/06/12 04:00:25;;;;;;;6.18;3.88;;;15.60;99.90;;;15.03;100.00;101101.19;4119932;28;20085;-75
2023/06/12 04:02:26;;;;;;;5.97;3.40;;;15.60;99.90;;;15.01;100.00;101103.19;4119038;28;20086;-75
2023/06/12 04:04:27;;;;;;;7.53;3.67;;;15.60;99.90;;;14.93;100.00;101100.59;4131561;28;20031;-75
2023/06/12 04:06:29;;;;;;;6.28;3.40;;;15.60;99.90;;;14.94;100.00;101104.91;4119970;28;20107;-74
2023/06/12 04:08:30;;;;;;;7.15;3.85;;;15.50;99.90;;;14.88;100.00;101101.13;4119931;28;20442;-75
2023/06/12 04:10:33;;;;;;;5.07;3.70;;;15.40;99.90;;;14.82;100.00;101093.00;4120591;28;20026;-75
2023/06/12 04:12:34;;;;;;;7.72;4.43;;;15.40;99.90;;;14.77;100.00;101100.69;4123140;28;20050;-75
2023/06/12 04:14:35;;;;;;;5.75;4.05;;;15.40;99.90;;;14.73;100.00;101100.19;4123197;28;20034;-75
2023/06/12 04:16:35;;;;;;;6.78;3.78;;;15.30;99.90;;;14.68;100.00;101083.16;4127981;28;20042;-75
2023/06/12 04:18:38;;;;;;;6.35;4.20;;;15.30;99.90;;;14.63;100.00;101080.19;4126442;28;20478;-75
2023/06/12 04:20:39;;;;;;;5.97;4.10;;;15.20;99.90;;;14.55;100.00;101077.56;4123204;28;20464;-75
2023/06/12 04:22:41;;;;;;;6.80;3.72;;;15.20;99.90;;;14.55;100.00;101086.34;4123582;28;20030;-75
2023/06/12 04:24:45;;;;;;;5.88;4.05;;;15.10;99.90;;;14.51;100.00;101084.22;4123073;28;20102;-75
2023/06/12 04:26:46;;;;;;;;;;;15.10;99.90;;;14.40;100.00;101083.59;4128960;28;20026;-75
2023/06/12 04:28:47;;;;;;;7.60;4.25;;;15.10;99.90;;;14.48;100.00;101095.19;4123110;28;19988;-75
2023/06/12 04:30:49;;;;;;;6.85;4.65;;;15.10;99.90;;;14.50;100.00;101098.50;4123055;28;20703;-75
2023/06/12 04:32:50;;;;;;;5.35;4.03;;;15.00;99.90;;;14.49;100.00;101107.44;4123059;28;20030;-75
2023/06/12 04:34:51;;;;;;;5.93;3.95;;;15.00;99.90;;;14.49;100.00;101104.78;4122720;28;20073;-75
2023/06/12 04:36:52;;;;;;;7.18;4.68;;;15.00;99.90;;;14.53;100.00;101109.59;4127683;28;20023;-75
2023/06/12 04:38:53;;;;;;;6.05;4.35;;;15.00;99.90;;;14.51;100.00;101110.78;4123057;28;20089;-75
2023/06/12 04:40:54;;;;;;;6.60;4.72;;;15.00;99.90;;;14.51;100.00;101110.78;4121646;28;20466;-75
2023/06/12 04:42:56;;;;;;;6.80;4.18;;;15.00;99.90;;;14.55;100.00;101107.59;4122564;28;20383;-75
2023/06/12 04:44:58;;;;;;;6.95;4.82;;;15.10;99.90;;;14.63;100.00;101109.41;4122562;28;20027;-75
2023/06/12 04:47:00;;;;;;;6.68;4.85;;;15.10;99.90;;;14.66;100.00;101120.50;4130309;28;20088;-74
2023/06/12 04:49:01;;;;;;;6.97;5.35;;;15.20;99.90;;;14.68;100.00;101117.66;4137457;28;20018;-75
2023/06/12 04:51:02;;;;;;;7.35;4.53;;;15.20;99.90;;;14.73;100.00;101115.31;4153793;28;20032;-75
2023/06/12 04:53:03;;;;;;;7.13;4.82;;;15.20;99.90;;;14.77;100.00;101116.63;4137913;28;20109;-75
2023/06/12 04:55:08;;;;;;;8.98;4.63;;;15.30;99.90;;;14.77;100.00;101113.97;4138847;28;20027;-75
2023/06/12 04:57:12;;;;;;;6.80;4.38;;;15.30;99.90;;;14.75;100.00;101106.19;4127314;28;20038;-75
2023/06/12 04:59:16;;;;;;;5.72;4.35;;;15.30;99.90;;;14.77;100.00;101112.16;4122430;28;20513;-75
2023/06/12 05:01:21;;;;;;;6.30;5.00;;;15.30;99.90;;;14.74;100.00;101101.88;4121510;28;20650;-75
2023/06/12 05:03:22;;;;;;;6.15;5.55;;;15.30;99.90;;;14.80;100.00;101108.31;4129455;28;20053;-75
2023/06/12 05:05:23;;;;;;;7.97;4.97;;;15.30;99.90;;;14.82;100.00;101104.47;4127685;28;20015;-75
2023/06/12 05:07:24;;;;;;;6.95;5.07;;;15.30;99.90;;;14.85;100.00;101105.94;4132853;28;20026;-75
2023/06/12 05:09:25;;;;;;;7.93;5.38;;;15.40;99.90;;;14.86;100.00;101105.78;4121397;28;20023;-75
2023/06/12 05:11:26;;;;;;;7.65;4.80;;;15.40;99.90;;;14.92;100.00;101106.91;4120770;28;20094;-75
2023/06/12 05:13:27;;;;;;;8.50;5.55;;;15.40;99.90;;;14.92;100.00;101110.41;4120966;28;20033;-75
2023/06/12 05:15:29;;;;;;;6.85;5.28;;;15.40;99.90;;;14.92;100.00;101101.59;4120897;28;20043;-75
2023/06/12 05:17:31;;;;;;;6.45;4.68;;;15.40;99.90;;;15.05;100.00;101106.34;4129290;28;20034;-75
2023/06/12 05:19:32;;;;;;;6.18;4.53;;;15.50;99.90;;;15.04;100.00;101108.16;4122362;28;20142;-75
2023/06/12 05:21:33;;;;;;;7.03;4.32;;;15.50;99.90;;;15.05;100.00;101098.38;4122084;28;20102;-75
2023/06/12 05:23:34;;;;;;;11.15;5.88;;;15.60;99.90;;;15.11;100.00;101114.44;4122671;28;20027;-75
2023/06/12 05:25:35;;;;;;;6.93;5.60;;;15.60;99.90;;;15.12;100.00;101110.75;4122209;28;20031;-75
2023/06/12 05:27:36;;;;;;;7.05;5.03;;;15.60;99.90;;;15.20;100.00;101112.56;4133789;28;20018;-75
2023/06/12 05:29:37;;;;;;;6.47;4.97;;;15.60;99.90;;;15.23;100.00;101110.34;4138284;28;20489;-75
2023/06/12 05:31:38;;;;;;;8.18;4.75;;;15.70;99.90;;;15.12;100.00;101099.28;4138083;28;20453;-75
2023/06/12 05:33:39;;;;;;;5.18;4.15;;;15.70;99.90;;;15.28;100.00;101115.97;4136990;28;20030;-75
2023/06/12 05:35:39;;;;;;;7.45;4.38;;;15.70;99.90;;;15.30;100.00;101111.28;4152730;28;20088;-75
2023/06/12 05:37:40;;;;;;;7.45;5.80;;;15.80;99.90;;;15.35;100.00;101110.78;4136286;28;20026;-75
2023/06/12 05:39:41;;;;;;;5.95;4.50;;;15.80;99.90;;;15.38;100.00;101108.56;4136732;28;20410;-75
2023/06/12 05:41:42;;;;;;;6.28;5.00;;;15.80;99.90;;;15.38;100.00;101111.22;4136580;28;20026;-75
2023/06/12 05:43:45;;;;;;;6.53;4.80;;;15.90;99.90;;;15.45;100.00;101111.34;4137947;28;20035;-75
2023/06/12 05:45:46;;;;;;;5.40;4.55;;;15.90;99.90;;;15.49;100.00;101115.34;4137870;28;20026;-75
2023/06/12 05:47:47;;;;;;;4.80;4.22;;;15.90;99.90;;;15.54;100.00;101114.78;4123641;28;20120;-75
2023/06/12 05:49:48;;;;;;;6.28;3.80;;;16.00;99.90;;;15.62;100.00;101114.75;4121834;28;20502;-75
2023/06/12 05:51:49;;;;;;;7.22;4.75;;;16.00;99.90;;;15.67;100.00;101123.00;4120734;28;20027;-75
2023/06/12 05:53:50;;;;;;;5.47;3.53;;;16.00;99.90;;;15.72;100.00;101115.31;4121710;28;20502;-75
2023/06/12 05:55:51;;;;;;;5.78;4.55;;;16.10;99.90;;;15.77;100.00;101115.59;4133688;28;20031;-75
2023/06/12 05:57:52;;;;;;;6.35;4.28;;;16.20;99.90;;;15.80;100.00;101125.88;4135251;28;20450;-75
2023/06/12 05:59:52;;;;;;;6.07;3.80;;;16.20;99.90;;;15.81;100.00;101119.53;4137608;28;20034;-75
2023/06/12 06:01:56;;;;;;;5.13;3.70;;;16.20;99.90;;;15.87;100.00;101122.31;4137870;28;20033;-75
2023/06/12 06:03:57;;;;;;;6.95;5.07;;;16.30;99.90;;;15.88;100.00;101117.81;4137523;28;20034;-75
2023/06/12 06:05:58;;;;;;;4.88;3.72;;;16.30;99.90;;;15.95;100.00;101124.06;4120981;28;20560;-75
2023/06/12 06:07:59;;;;;;;7.65;4.55;;;16.40;99.90;;;15.94;100.00;101123.25;4131612;28;20035;-75
2023/06/12 06:10:00;;;;;;;8.75;4.28;;;16.40;99.90;;;15.98;100.00;101123.69;4120275;28;20034;-75
2023/06/12 06:12:01;;;;;;;4.95;3.15;;;16.50;99.90;;;16.04;100.00;101128.28;4121323;28;20023;-75
2023/06/12 06:14:03;;;;;;;5.05;3.20;;;16.50;99.90;;;16.11;100.00;101129.22;4120218;28;20050;-75
2023/06/12 06:16:04;;;;;;;5.43;3.63;;;16.50;99.90;;;16.19;100.00;101126.47;4121264;28;20058;-75
2023/06/12 06:18:06;;;;;;;4.40;3.85;;;16.60;99.90;;;16.23;100.00;101126.94;4128898;28;20058;-75
2023/06/12 06:20:08;;;;;;;4.55;3.70;;;16.70;99.90;;;16.27;100.00;101126.41;4121428;28;20037;-75
2023/06/12 06:22:09;;;;;;;5.35;4.10;;;16.70;99.90;;;16.34;100.00;101119.31;4123684;28;20036;-75
2023/06/12 06:24:10;;;;;;;7.30;4.38;;;16.80;99.90;;;16.33;100.00;101117.69;4137241;28;20423;-75
2023/06/12 06:26:12;;;;;;;5.38;3.70;;;16.80;99.90;;;16.30;100.00;101119.88;4135989;28;20034;-75
2023/06/12 06:28:13;;;;;;;4.70;4.07;;;16.80;99.90;;;16.26;100.00;101122.06;4135989;28;20067;-74
2023/06/12 06:30:14;;;;;;;4.20;3.60;;;16.80;99.90;;;16.33;100.00;101133.66;4121924;28;20089;-75
2023/06/12 06:32:16;;;;;;;8.55;4.15;;;16.80;99.90;;;16.40;100.00;101129.22;4121217;28;20475;-75
2023/06/12 06:34:18;;;;;;;5.25;4.40;;;16.90;99.90;;;16.38;100.00;101120.59;4119857;28;20129;-75
2023/06/12 06:36:19;;;;;;;6.10;4.18;;;16.90;99.90;;;16.42;100.00;101123.72;4137587;28;20482;-75
2023/06/12 06:38:22;;;;;;;4.55;3.38;;;16.90;99.90;;;16.52;100.00;101127.75;4121726;28;20022;-75
2023/06/12 06:40:23;;;;;;;6.57;4.13;;;17.00;99.90;;;16.47;100.00;101122.16;4121054;28;20121;-74
2023/06/12 06:42:23;;;;;;;4.75;3.72;;;17.00;99.90;;;16.46;100.00;101114.34;4120702;28;20031;-75
2023/06/12 06:44:24;;;;;;;5.15;3.67;;;17.00;99.90;;;16.60;100.00;101124.22;4120987;28;20038;-75
2023/06/12 06:46:25;;;;;;;6.00;3.60;;;17.10;99.90;;;16.63;100.00;101123.00;4121067;28;20034;-75
2023/06/12 06:48:26;;;;;;;3.70;2.92;;;17.10;99.90;;;16.68;100.00;101133.91;4120901;28;20417;-74
2023/06/12 06:50:27;;;;;;;6.60;3.72;;;17.20;99.90;;;16.73;100.00;101129.69;4120859;28;20082;-75
2023/06/12 06:52:28;;;;;;;3.80;3.00;;;17.20;99.90;;;16.82;100.00;101127.72;4120764;28;20034;-75
2023/06/12 06:54:28;;;;;;;4.40;3.40;;;17.20;99.90;;;16.93;100.00;101129.94;4119483;28;20516;-74
2023/06/12 06:56:30;;;;;;;5.57;3.13;;;17.30;99.90;;;17.13;100.00;101134.47;4123328;28;20046;-75
2023/06/12 06:58:31;;;;;;;7.13;3.15;;;17.40;99.90;;;17.53;100.00;101132.19;4135607;28;20030;-75
2023/06/12 07:00:32;;;;;;;4.30;2.78;;;17.60;99.90;;;17.79;100.00;101134.28;4136814;28;20081;-74
2023/06/12 07:02:33;;;;;;;3.50;2.28;;;17.80;99.90;;;17.78;100.00;101128.09;4136608;28;20036;-75
2023/06/12 07:04:34;;;;;;;7.43;3.88;;;17.90;99.90;;;17.75;100.00;101130.31;4132475;28;20407;-74
2023/06/12 07:06:35;;;;;;;4.07;2.67;;;18.00;99.90;;;17.78;100.00;101132.59;4139026;28;20496;-75
2023/06/12 07:08:36;;;;;;;3.92;3.05;;;18.00;99.90;;;17.69;100.00;101132.75;4125762;28;20070;-75
2023/06/12 07:10:37;;;;;;;5.75;3.25;;;18.10;99.90;;;17.60;100.00;101133.91;4120619;28;20027;-75
2023/06/12 07:12:38;;;;;;;6.13;3.85;;;18.10;99.90;;;17.60;100.00;101128.56;4120420;28;20027;-75
2023/06/12 07:14:39;;;;;;;5.95;3.38;;;18.10;99.90;;;17.63;100.00;101127.38;4120476;28;20039;-75
2023/06/12 07:16:40;;;;;;;6.65;4.22;;;18.10;99.90;;;17.59;100.00;101131.44;4124094;28;20505;-74
2023/06/12 07:18:41;;;;;;;4.60;3.22;;;18.10;99.90;;;17.70;100.00;101133.59;4135311;28;20397;-75
2023/06/12 07:20:42;;;;;;;4.53;3.88;;;18.10;99.90;;;17.64;100.00;101124.53;4136583;28;20050;-75
2023/06/12 07:22:43;;;;;;;5.20;3.97;;;18.10;99.90;;;17.63;100.00;101119.34;4129917;28;20077;-74
2023/06/12 07:24:43;;;;;;;4.88;3.30;;;18.20;99.90;;;17.69;100.00;101124.75;4119106;28;20042;-75
2023/06/12 07:26:44;;;;;;;5.75;3.63;;;18.20;99.90;;;17.68;100.00;101125.75;4124369;28;20432;-75
2023/06/12 07:28:45;;;;;;;5.45;4.30;;;18.20;99.90;;;17.54;100.00;101128.47;4119276;28;20042;-75
2023/06/12 07:30:46;;;;;;;6.90;4.47;;;18.20;99.90;;;17.53;100.00;101124.97;4120318;28;20023;-75
2023/06/12 07:32:47;;;;;;;4.90;3.72;;;18.20;99.90;;;17.62;100.00;101120.41;4120315;28;20027;-75
2023/06/12 07:34:48;;;;;;;5.63;4.25;;;18.20;99.90;;;17.69;100.00;101123.94;4131840;28;20045;-75
2023/06/12 07:36:49;;;;;;;6.32;3.97;;;18.20;99.90;;;17.75;100.00;101114.31;4135152;28;20089;-75
2023/06/12 07:38:50;;;;;;;6.97;3.55;;;18.30;99.90;;;17.90;100.00;101123.06;4135161;28;20109;-75
2023/06/12 07:40:51;;;;;;;6.03;3.00;;;18.30;99.90;;;17.95;100.00;101116.13;4126960;28;20450;-75
2023/06/12 07:42:52;;;;;;;4.95;3.47;;;18.40;99.90;;;17.96;100.00;101125.78;4118983;28;20085;-75
2023/06/12 07:44:53;;;;;;;5.18;3.78;;;18.50;99.90;;;17.93;100.00;101130.69;4119776;28;20038;-75
2023/06/12 07:46:55;;;;;;;4.20;3.30;;;18.50;99.90;;;17.97;100.00;101113.25;4125276;28;20445;-75
2023/06/12 07:48:56;;;;;;;4.85;3.70;;;18.60;99.90;;;18.14;100.00;101117.28;4126872;28;20053;-75
2023/06/12 07:50:57;;;;;;;4.05;3.15;;;18.60;99.90;;;18.38;100.00;101115.97;4130844;28;20030;-75
2023/06/12 07:52:57;;;;;;;5.30;3.35;;;18.80;99.90;;;18.49;100.00;101126.94;4119560;28;20031;-75
2023/06/12 07:54:58;;;;;;;6.93;4.18;;;18.90;99.90;;;18.49;100.00;101116.25;4136242;28;20019;-75
2023/06/12 07:56:59;;;;;;;4.35;3.38;;;19.00;99.90;;;18.64;100.00;101108.94;4135905;28;20026;-75
2023/06/12 07:59:10;;;;;;;3.72;3.30;;;19.10;99.90;;;18.83;100.00;101112.72;4124134;28;20026;-75
2023/06/12 08:01:11;;;;;;;3.78;2.80;;;19.20;99.90;;;19.02;100.00;101108.44;4118706;28;20038;-75
2023/06/12 08:03:15;;;;;;;4.97;3.20;;;19.30;99.90;;;19.14;100.00;101114.84;4126509;28;20019;-75
2023/06/12 08:05:18;;;;;;;4.18;2.83;;;19.50;99.90;;;19.23;100.00;101116.31;4126054;28;20031;-75
2023/06/12 08:07:19;;;;;;;6.70;3.38;;;19.60;99.90;;;19.26;100.00;101116.72;4126736;28;20046;-75
2023/06/12 08:09:20;;;;;;;5.22;3.60;;;19.70;99.90;;;19.37;100.00;101117.97;4120625;28;20486;-75
2023/06/12 08:11:20;;;;;;;3.65;2.83;;;19.80;99.90;;;19.51;100.00;101118.81;4119727;28;20027;-75
2023/06/12 08:13:21;;;;;;;5.70;3.00;;;19.90;99.90;;;19.57;100.00;101124.19;4119897;28;20518;-75
2023/06/12 08:15:22;;;;;;;4.88;3.45;;;20.00;99.90;;;19.62;100.00;101110.22;4119719;28;20047;-75
2023/06/12 08:17:23;;;;;;;7.50;3.90;;;20.10;99.90;;;19.66;100.00;101114.09;4125504;28;20023;-75
2023/06/12 08:19:24;;;;;;;4.10;3.60;;;20.20;99.90;;;19.66;100.00;101114.94;4119936;28;20033;-75
2023/06/12 08:21:25;;;;;;;5.82;4.30;;;20.20;99.90;;;19.83;100.00;101115.34;4119865;28;20495;-75
2023/06/12 08:23:26;;;;;;;4.90;4.18;;;20.20;99.90;;;19.70;100.00;101118.03;4121536;28;20035;-75